sensor_id;sensor_type;location;lat;lon;timestamp;pressure;altitude;pressure_sealevel;temperature;humidity
61324;BME280;47203;48.428;11.974;2023-05-11T00:01:31;96583.06;;;15.71;53.61
61324;BME280;47203;48.428;11.974;2023-05-11T00:03:36;96580.09;;;15.73;53.64
61324;BME280;47203;48.428;11.974;2023-05-11T00:05:41;96580.09;;;15.73;53.57
61324;BME280;47203;48.428;11.974;2023-05-11T00:07:50;96577.75;;;15.71;53.76
61324;BME280;47203;48.428;11.974;2023-05-11T00:09:55;96575.09;;;15.71;53.79
61324;BME280;47203;48.428;11.974;2023-05-11T00:12:00;96580.41;;;15.71;53.82
61324;BME280;47203;48.428;11.974;2023-05-11T00:14:05;96575.56;;;15.74;54.05
61324;BME280;47203;48.428;11.974;2023-05-11T00:16:12;96566.53;;;15.75;53.74
61324;BME280;47203;48.428;11.974;2023-05-11T00:18:17;96574.50;;;15.75;54.02
61324;BME280;47203;48.428;11.974;2023-05-11T00:20:22;96580.09;;;15.73;53.97
61324;BME280;47203;48.428;11.974;2023-05-11T00:22:27;96572.75;;;15.70;54.00
61324;BME280;47203;48.428;11.974;2023-05-11T00:24:32;96568.81;;;15.67;54.00
61324;BME280;47203;48.428;11.974;2023-05-11T00:26:36;96567.53;;;15.65;54.22
61324;BME280;47203;48.428;11.974;2023-05-11T00:28:41;96573.44;;;15.62;53.82
61324;BME280;47203;48.428;11.974;2023-05-11T00:30:46;96566.09;;;15.59;54.13
61324;BME280;47203;48.428;11.974;2023-05-11T00:32:54;96568.28;;;15.57;54.18
61324;BME280;47203;48.428;11.974;2023-05-11T00:34:59;96563.75;;;15.57;54.40
61324;BME280;47203;48.428;11.974;2023-05-11T00:37:04;96562.66;;;15.58;54.30
61324;BME280;47203;48.428;11.974;2023-05-11T00:39:09;96561.41;;;15.56;54.31
61324;BME280;47203;48.428;11.974;2023-05-11T00:41:14;96554.22;;;15.56;54.14
61324;BME280;47203;48.428;11.974;2023-05-11T00:43:19;96564.03;;;15.56;54.09
61324;BME280;47203;48.428;11.974;2023-05-11T00:45:24;96557.97;;;15.55;54.39
61324;BME280;47203;48.428;11.974;2023-05-11T00:47:29;96558.75;;;15.56;54.20
61324;BME280;47203;48.428;11.974;2023-05-11T00:49:37;96556.38;;;15.54;54.00
61324;BME280;47203;48.428;11.974;2023-05-11T00:51:42;96559.94;;;15.49;54.44
61324;BME280;47203;48.428;11.974;2023-05-11T00:53:48;96553.84;;;15.49;54.50
61324;BME280;47203;48.428;11.974;2023-05-11T00:55:53;96553.06;;;15.48;54.13
61324;BME280;47203;48.428;11.974;2023-05-11T00:57:58;96556.78;;;15.47;54.26
61324;BME280;47203;48.428;11.974;2023-05-11T01:00:07;96551.47;;;15.47;54.25
61324;BME280;47203;48.428;11.974;2023-05-11T01:02:12;96551.00;;;15.45;54.23
61324;BME280;47203;48.428;11.974;2023-05-11T01:04:17;96554.44;;;15.46;54.39
61324;BME280;47203;48.428;11.974;2023-05-11T01:06:29;96557.09;;;15.46;54.45
61324;BME280;47203;48.428;11.974;2023-05-11T01:08:39;96552.09;;;15.44;54.13
61324;BME280;47203;48.428;11.974;2023-05-11T01:10:48;96546.00;;;15.44;54.53
61324;BME280;47203;48.428;11.974;2023-05-11T01:13:08;96548.16;;;15.42;54.39
61324;BME280;47203;48.428;11.974;2023-05-11T01:15:19;96550.81;;;15.42;54.37
61324;BME280;47203;48.428;11.974;2023-05-11T01:19:57;96545.34;;;15.38;54.37
61324;BME280;47203;48.428;11.974;2023-05-11T01:22:15;96547.47;;;15.36;54.45
61324;BME280;47203;48.428;11.974;2023-05-11T01:24:46;96543.59;;;15.33;54.80
61324;BME280;47203;48.428;11.974;2023-05-11T01:27:28;96540.56;;;15.26;54.74
61324;BME280;47203;48.428;11.974;2023-05-11T01:29:59;96533.69;;;15.25;54.83
61324;BME280;47203;48.428;11.974;2023-05-11T01:32:14;96541.16;;;15.23;54.81
61324;BME280;47203;48.428;11.974;2023-05-11T01:34:23;96542.22;;;15.22;54.73
61324;BME280;47203;48.428;11.974;2023-05-11T01:36:32;96543.31;;;15.21;54.67
61324;BME280;47203;48.428;11.974;2023-05-11T01:38:39;96536.16;;;15.22;54.72
61324;BME280;47203;48.428;11.974;2023-05-11T01:40:49;96541.94;;;15.24;55.04
61324;BME280;47203;48.428;11.974;2023-05-11T01:42:59;96544.28;;;15.25;54.94
61324;BME280;47203;48.428;11.974;2023-05-11T01:45:07;96545.84;;;15.26;54.76
61324;BME280;47203;48.428;11.974;2023-05-11T01:47:15;96538.97;;;15.25;54.56
61324;BME280;47203;48.428;11.974;2023-05-11T01:49:20;96535.56;;;15.25;54.63
61324;BME280;47203;48.428;11.974;2023-05-11T01:51:27;96538.97;;;15.25;54.74
61324;BME280;47203;48.428;11.974;2023-05-11T01:53:36;96541.63;;;15.25;54.73
61324;BME280;47203;48.428;11.974;2023-05-11T01:55:41;96537.09;;;15.26;54.74
61324;BME280;47203;48.428;11.974;2023-05-11T01:57:52;96532.09;;;15.24;54.84
61324;BME280;47203;48.428;11.974;2023-05-11T01:59:58;96541.16;;;15.23;55.02
61324;BME280;47203;48.428;11.974;2023-05-11T02:02:17;96535.34;;;15.21;54.99
61324;BME280;47203;48.428;11.974;2023-05-11T02:04:23;96538.81;;;15.22;54.87
61324;BME280;47203;48.428;11.974;2023-05-11T02:06:31;96532.69;;;15.21;54.95
61324;BME280;47203;48.428;11.974;2023-05-11T02:08:38;96535.34;;;15.21;54.77
61324;BME280;47203;48.428;11.974;2023-05-11T02:10:45;96533.50;;;15.22;55.20
61324;BME280;47203;48.428;11.974;2023-05-11T02:12:52;96531.41;;;15.18;54.94
61324;BME280;47203;48.428;11.974;2023-05-11T02:14:59;96535.47;;;15.16;54.76
61324;BME280;47203;48.428;11.974;2023-05-11T02:17:06;96532.63;;;15.12;55.20
61324;BME280;47203;48.428;11.974;2023-05-11T02:19:15;96532.13;;;15.10;55.15
61324;BME280;47203;48.428;11.974;2023-05-11T02:21:21;96535.88;;;15.09;55.32
61324;BME280;47203;48.428;11.974;2023-05-11T02:23:30;96532.44;;;15.09;54.99
61324;BME280;47203;48.428;11.974;2023-05-11T02:25:37;96524.19;;;15.10;55.08
61324;BME280;47203;48.428;11.974;2023-05-11T02:27:43;96528.22;;;15.08;55.40
61324;BME280;47203;48.428;11.974;2023-05-11T02:29:48;96527.75;;;15.06;55.35
61324;BME280;47203;48.428;11.974;2023-05-11T02:31:56;96521.34;;;15.07;55.60
61324;BME280;47203;48.428;11.974;2023-05-11T02:34:05;96524.59;;;15.04;55.32
61324;BME280;47203;48.428;11.974;2023-05-11T02:36:19;96517.22;;;15.00;55.81
61324;BME280;47203;48.428;11.974;2023-05-11T02:38:30;96524.09;;;15.01;55.29
61324;BME280;47203;48.428;11.974;2023-05-11T02:40:43;96521.47;;;15.01;55.67
61324;BME280;47203;48.428;11.974;2023-05-11T02:42:55;96514.09;;;14.98;55.68
61324;BME280;47203;48.428;11.974;2023-05-11T02:45:04;96514.09;;;14.98;55.53
61324;BME280;47203;48.428;11.974;2023-05-11T02:47:11;96514.41;;;14.97;55.36
61324;BME280;47203;48.428;11.974;2023-05-11T02:49:20;96512.34;;;14.94;55.47
61324;BME280;47203;48.428;11.974;2023-05-11T02:51:32;96512.34;;;14.94;55.84
61324;BME280;47203;48.428;11.974;2023-05-11T02:53:40;96514.41;;;14.97;55.68
61324;BME280;47203;48.428;11.974;2023-05-11T02:55:47;96506.94;;;14.99;55.58
61324;BME280;47203;48.428;11.974;2023-05-11T02:57:54;96510.84;;;15.01;55.56
61324;BME280;47203;48.428;11.974;2023-05-11T03:00:00;96507.91;;;15.03;55.56
61324;BME280;47203;48.428;11.974;2023-05-11T03:02:06;96512.13;;;15.04;55.60
61324;BME280;47203;48.428;11.974;2023-05-11T03:04:11;96512.13;;;15.04;55.90
61324;BME280;47203;48.428;11.974;2023-05-11T03:06:16;96510.56;;;15.03;55.63
61324;BME280;47203;48.428;11.974;2023-05-11T03:08:24;96510.56;;;15.03;55.54
61324;BME280;47203;48.428;11.974;2023-05-11T03:10:29;96512.44;;;15.03;55.88
61324;BME280;47203;48.428;11.974;2023-05-11T03:12:36;96515.09;;;15.03;55.58
61324;BME280;47203;48.428;11.974;2023-05-11T03:14:43;96515.09;;;15.03;55.82
61324;BME280;47203;48.428;11.974;2023-05-11T03:16:49;96507.91;;;15.03;55.90
61324;BME280;47203;48.428;11.974;2023-05-11T03:18:55;96505.84;;;15.00;55.60
61324;BME280;47203;48.428;11.974;2023-05-11T03:21:01;96506.63;;;15.00;55.76
61324;BME280;47203;48.428;11.974;2023-05-11T03:23:07;96507.69;;;14.99;55.91
61324;BME280;47203;48.428;11.974;2023-05-11T03:25:16;96504.28;;;14.99;55.89
61324;BME280;47203;48.428;11.974;2023-05-11T03:27:22;96508.00;;;14.98;55.87
61324;BME280;47203;48.428;11.974;2023-05-11T03:29:28;96508.00;;;14.98;55.86
61324;BME280;47203;48.428;11.974;2023-05-11T03:31:39;96501.16;;;14.97;55.90
61324;BME280;47203;48.428;11.974;2023-05-11T03:33:44;96510.47;;;14.94;55.84
61324;BME280;47203;48.428;11.974;2023-05-11T03:35:50;96508.41;;;14.91;56.20
61324;BME280;47203;48.428;11.974;2023-05-11T03:37:57;96502.13;;;14.87;56.31
61324;BME280;47203;48.428;11.974;2023-05-11T03:40:05;96504.50;;;14.89;56.05
61324;BME280;47203;48.428;11.974;2023-05-11T03:42:24;96500.25;;;14.88;56.10
61324;BME280;47203;48.428;11.974;2023-05-11T03:44:30;96500.25;;;14.88;56.00
61324;BME280;47203;48.428;11.974;2023-05-11T03:46:37;96501.38;;;14.87;56.19
61324;BME280;47203;48.428;11.974;2023-05-11T03:48:45;96500.09;;;14.84;56.24
61324;BME280;47203;48.428;11.974;2023-05-11T03:50:54;96496.94;;;14.82;56.47
61324;BME280;47203;48.428;11.974;2023-05-11T03:53:00;96493.50;;;14.81;56.50
61324;BME280;47203;48.428;11.974;2023-05-11T03:55:06;96495.09;;;14.82;56.28
61324;BME280;47203;48.428;11.974;2023-05-11T03:57:12;96496.94;;;14.82;56.47
61324;BME280;47203;48.428;11.974;2023-05-11T03:59:21;96489.28;;;14.80;56.56
61324;BME280;47203;48.428;11.974;2023-05-11T04:01:27;96494.56;;;14.80;56.53
61324;BME280;47203;48.428;11.974;2023-05-11T04:03:33;96496.44;;;14.80;56.22
61324;BME280;47203;48.428;11.974;2023-05-11T04:05:38;96491.44;;;14.78;56.43
61324;BME280;47203;48.428;11.974;2023-05-11T04:07:46;96489.09;;;14.77;56.39
61324;BME280;47203;48.428;11.974;2023-05-11T04:09:52;96495.97;;;14.78;56.41
61324;BME280;47203;48.428;11.974;2023-05-11T04:11:57;96486.16;;;14.78;56.53
61324;BME280;47203;48.428;11.974;2023-05-11T04:14:02;96485.84;;;14.80;56.49
61324;BME280;47203;48.428;11.974;2023-05-11T04:16:10;96490.84;;;14.81;56.56
61324;BME280;47203;48.428;11.974;2023-05-11T04:18:15;96492.44;;;14.82;56.51
61324;BME280;47203;48.428;11.974;2023-05-11T04:20:19;96487.13;;;14.82;56.46
61324;BME280;47203;48.428;11.974;2023-05-11T04:22:25;96488.50;;;14.80;56.50
61324;BME280;47203;48.428;11.974;2023-05-11T04:24:30;96499.09;;;14.80;56.29
61324;BME280;47203;48.428;11.974;2023-05-11T04:26:35;96492.22;;;14.79;56.40
61324;BME280;47203;48.428;11.974;2023-05-11T04:28:39;96489.28;;;14.80;56.29
61324;BME280;47203;48.428;11.974;2023-05-11T04:30:44;96500.38;;;14.82;56.55
61324;BME280;47203;48.428;11.974;2023-05-11T04:32:52;96498.22;;;14.84;56.47
61324;BME280;47203;48.428;11.974;2023-05-11T04:34:57;96500.09;;;14.84;56.60
61324;BME280;47203;48.428;11.974;2023-05-11T04:37:04;96499.00;;;14.85;56.70
61324;BME280;47203;48.428;11.974;2023-05-11T04:39:12;96492.13;;;14.84;56.43
61324;BME280;47203;48.428;11.974;2023-05-11T04:41:17;96492.44;;;14.82;56.43
61324;BME280;47203;48.428;11.974;2023-05-11T04:43:24;96494.56;;;14.80;56.71
61324;BME280;47203;48.428;11.974;2023-05-11T04:45:29;96492.53;;;14.77;56.76
61324;BME280;47203;48.428;11.974;2023-05-11T04:47:34;96487.53;;;14.76;56.78
61324;BME280;47203;48.428;11.974;2023-05-11T04:49:44;96490.97;;;14.76;56.91
61324;BME280;47203;48.428;11.974;2023-05-11T04:51:49;96492.53;;;14.77;56.68
61324;BME280;47203;48.428;11.974;2023-05-11T04:53:54;96499.69;;;14.77;56.73
61324;BME280;47203;48.428;11.974;2023-05-11T04:55:59;96496.28;;;14.76;56.76
61324;BME280;47203;48.428;11.974;2023-05-11T04:58:04;96498.13;;;14.76;56.60
61324;BME280;47203;48.428;11.974;2023-05-11T05:00:10;96500.28;;;14.74;56.88
61324;BME280;47203;48.428;11.974;2023-05-11T05:02:14;96500.88;;;14.71;56.86
61324;BME280;47203;48.428;11.974;2023-05-11T05:04:20;96495.88;;;14.69;56.82
61324;BME280;47203;48.428;11.974;2023-05-11T05:06:27;96503.31;;;14.67;56.91
61324;BME280;47203;48.428;11.974;2023-05-11T05:08:33;96500.19;;;14.65;57.19
61324;BME280;47203;48.428;11.974;2023-05-11T05:10:38;96497.03;;;14.63;56.86
61324;BME280;47203;48.428;11.974;2023-05-11T05:12:43;96502.34;;;14.63;57.02
61324;BME280;47203;48.428;11.974;2023-05-11T05:14:48;96502.63;;;14.61;56.76
61324;BME280;47203;48.428;11.974;2023-05-11T05:16:53;96502.63;;;14.61;57.14
61324;BME280;47203;48.428;11.974;2023-05-11T05:18:58;96502.63;;;14.61;57.28
61324;BME280;47203;48.428;11.974;2023-05-11T05:21:05;96512.16;;;14.62;57.05
61324;BME280;47203;48.428;11.974;2023-05-11T05:23:12;96512.94;;;14.63;57.27
61324;BME280;47203;48.428;11.974;2023-05-11T05:25:17;96505.50;;;14.65;57.07
61324;BME280;47203;48.428;11.974;2023-05-11T05:27:22;96507.06;;;14.66;57.31
61324;BME280;47203;48.428;11.974;2023-05-11T05:29:28;96512.06;;;14.68;57.11
61324;BME280;47203;48.428;11.974;2023-05-11T05:31:33;96502.25;;;14.68;57.35
61324;BME280;47203;48.428;11.974;2023-05-11T05:33:38;96506.78;;;14.68;57.13
61324;BME280;47203;48.428;11.974;2023-05-11T05:35:43;96505.69;;;14.69;57.04
61324;BME280;47203;48.428;11.974;2023-05-11T05:37:50;96514.44;;;14.69;57.14
61324;BME280;47203;48.428;11.974;2023-05-11T05:39:58;96510.19;;;14.68;57.24
61324;BME280;47203;48.428;11.974;2023-05-11T05:42:04;96512.84;;;14.68;57.31
61324;BME280;47203;48.428;11.974;2023-05-11T05:44:09;96518.16;;;14.68;56.94
61324;BME280;47203;48.428;11.974;2023-05-11T05:46:14;96509.91;;;14.70;57.14
61324;BME280;47203;48.428;11.974;2023-05-11T05:48:20;96507.25;;;14.70;57.33
61324;BME280;47203;48.428;11.974;2023-05-11T05:50:25;96509.31;;;14.73;57.38
61324;BME280;47203;48.428;11.974;2023-05-11T05:52:30;96507.44;;;14.73;57.09
61324;BME280;47203;48.428;11.974;2023-05-11T05:54:36;96514.00;;;14.76;57.38
61324;BME280;47203;48.428;11.974;2023-05-11T05:56:44;96506.88;;;14.76;57.26
61324;BME280;47203;48.428;11.974;2023-05-11T05:58:50;96512.66;;;14.78;57.35
61324;BME280;47203;48.428;11.974;2023-05-11T06:00:55;96510.78;;;14.79;57.08
61324;BME280;47203;48.428;11.974;2023-05-11T06:02:59;96515.00;;;14.80;57.07
61324;BME280;47203;48.428;11.974;2023-05-11T06:05:06;96510.00;;;14.78;57.20
61324;BME280;47203;48.428;11.974;2023-05-11T06:07:11;96509.22;;;14.78;57.28
61324;BME280;47203;48.428;11.974;2023-05-11T06:09:16;96519.53;;;14.79;57.27
61324;BME280;47203;48.428;11.974;2023-05-11T06:11:21;96512.34;;;14.80;57.50
61324;BME280;47203;48.428;11.974;2023-05-11T06:13:29;96514.69;;;14.81;57.74
61324;BME280;47203;48.428;11.974;2023-05-11T06:15:34;96520.78;;;14.82;57.63
61324;BME280;47203;48.428;11.974;2023-05-11T06:17:48;96520.28;;;14.80;57.62
61324;BME280;47203;48.428;11.974;2023-05-11T06:19:53;96516.38;;;14.77;57.43
61324;BME280;47203;48.428;11.974;2023-05-11T06:22:01;96516.66;;;14.76;57.56
61324;BME280;47203;48.428;11.974;2023-05-11T06:24:08;96520.69;;;14.73;57.47
61324;BME280;47203;48.428;11.974;2023-05-11T06:26:15;96529.22;;;14.70;57.48
61324;BME280;47203;48.428;11.974;2023-05-11T06:28:21;96523.44;;;14.68;57.69
61324;BME280;47203;48.428;11.974;2023-05-11T06:30:34;96521.41;;;14.65;58.27
61324;BME280;47203;48.428;11.974;2023-05-11T06:32:41;96517.66;;;14.66;57.76
61324;BME280;47203;48.428;11.974;2023-05-11T06:34:47;96527.16;;;14.67;58.08
61324;BME280;47203;48.428;11.974;2023-05-11T06:36:52;96519.72;;;14.69;58.21
61324;BME280;47203;48.428;11.974;2023-05-11T06:38:57;96524.44;;;14.72;57.93
61324;BME280;47203;48.428;11.974;2023-05-11T06:41:02;96516.50;;;14.72;57.82
61324;BME280;47203;48.428;11.974;2023-05-11T06:43:08;96516.50;;;14.72;57.96
61324;BME280;47203;48.428;11.974;2023-05-11T06:45:18;96523.16;;;14.70;58.31
61324;BME280;47203;48.428;11.974;2023-05-11T06:47:26;96525.31;;;14.68;58.14
61324;BME280;47203;48.428;11.974;2023-05-11T06:49:31;96515.78;;;14.66;58.21
61324;BME280;47203;48.428;11.974;2023-05-11T06:51:35;96518.94;;;14.69;57.96
61324;BME280;47203;48.428;11.974;2023-05-11T06:53:40;96517.09;;;14.69;58.14
61324;BME280;47203;48.428;11.974;2023-05-11T06:55:45;96514.63;;;14.73;58.36
61324;BME280;47203;48.428;11.974;2023-05-11T06:57:50;96513.25;;;14.75;58.06
61324;BME280;47203;48.428;11.974;2023-05-11T06:59:55;96518.25;;;14.77;58.38
61324;BME280;47203;48.428;11.974;2023-05-11T07:02:00;96515.59;;;14.77;58.36
61324;BME280;47203;48.428;11.974;2023-05-11T07:04:07;96514.00;;;14.76;58.13
61324;BME280;47203;48.428;11.974;2023-05-11T07:06:12;96510.59;;;14.75;58.20
61324;BME280;47203;48.428;11.974;2023-05-11T07:08:17;96515.13;;;14.75;58.06
61324;BME280;47203;48.428;11.974;2023-05-11T07:10:22;96510.88;;;14.74;58.48
61324;BME280;47203;48.428;11.974;2023-05-11T07:12:27;96518.84;;;14.74;58.19
61324;BME280;47203;48.428;11.974;2023-05-11T07:14:32;96511.97;;;14.73;58.15
61324;BME280;47203;48.428;11.974;2023-05-11T07:16:37;96513.34;;;14.70;58.08
61324;BME280;47203;48.428;11.974;2023-05-11T07:18:43;96515.22;;;14.70;58.42
61324;BME280;47203;48.428;11.974;2023-05-11T07:20:50;96523.63;;;14.72;58.43
61324;BME280;47203;48.428;11.974;2023-05-11T07:22:56;96518.53;;;14.75;58.71
61324;BME280;47203;48.428;11.974;2023-05-11T07:25:01;96526.66;;;14.79;58.70
61324;BME280;47203;48.428;11.974;2023-05-11T07:27:06;96518.94;;;14.82;58.57
61324;BME280;47203;48.428;11.974;2023-05-11T07:29:11;96523.63;;;14.86;58.71
61324;BME280;47203;48.428;11.974;2023-05-11T07:31:16;96529.72;;;14.86;58.47
61324;BME280;47203;48.428;11.974;2023-05-11T07:33:21;96526.59;;;14.84;58.55
61324;BME280;47203;48.428;11.974;2023-05-11T07:35:25;96524.69;;;14.84;58.58
61324;BME280;47203;48.428;11.974;2023-05-11T07:37:33;96526.06;;;14.82;58.83
61324;BME280;47203;48.428;11.974;2023-05-11T07:39:38;96528.72;;;14.82;58.83
61324;BME280;47203;48.428;11.974;2023-05-11T07:41:43;96517.94;;;14.78;58.80
61324;BME280;47203;48.428;11.974;2023-05-11T07:43:47;96523.72;;;14.80;58.71
61324;BME280;47203;48.428;11.974;2023-05-11T07:45:53;96527.94;;;14.81;58.70
61324;BME280;47203;48.428;11.974;2023-05-11T07:47:58;96525.31;;;14.81;58.72
61324;BME280;47203;48.428;11.974;2023-05-11T07:50:03;96528.72;;;14.82;58.81
61324;BME280;47203;48.428;11.974;2023-05-11T07:52:08;96526.88;;;14.82;58.77
61324;BME280;47203;48.428;11.974;2023-05-11T07:54:16;96527.34;;;14.84;59.10
61324;BME280;47203;48.428;11.974;2023-05-11T07:56:22;96530.00;;;14.84;59.05
61324;BME280;47203;48.428;11.974;2023-05-11T07:58:27;96527.34;;;14.84;59.04
61324;BME280;47203;48.428;11.974;2023-05-11T08:00:33;96528.72;;;14.82;58.86
61324;BME280;47203;48.428;11.974;2023-05-11T08:02:38;96527.66;;;14.83;59.14
61324;BME280;47203;48.428;11.974;2023-05-11T08:04:43;96518.63;;;14.84;58.83
61324;BME280;47203;48.428;11.974;2023-05-11T08:06:48;96523.34;;;14.87;58.91
61324;BME280;47203;48.428;11.974;2023-05-11T08:08:54;96524.13;;;14.88;58.95
61324;BME280;47203;48.428;11.974;2023-05-11T08:11:02;96528.63;;;14.87;59.07
61324;BME280;47203;48.428;11.974;2023-05-11T08:13:07;96523.34;;;14.87;59.06
61324;BME280;47203;48.428;11.974;2023-05-11T08:15:12;96527.34;;;14.84;58.63
61324;BME280;47203;48.428;11.974;2023-05-11T08:17:17;96529.81;;;14.81;58.99
61324;BME280;47203;48.428;11.974;2023-05-11T08:19:22;96526.97;;;14.77;58.94
61324;BME280;47203;48.428;11.974;2023-05-11T08:21:27;96525.41;;;14.76;58.87
61324;BME280;47203;48.428;11.974;2023-05-11T08:23:33;96531.00;;;14.75;58.63
61324;BME280;47203;48.428;11.974;2023-05-11T08:25:38;96528.38;;;14.75;58.71
61324;BME280;47203;48.428;11.974;2023-05-11T08:27:46;96522.25;;;14.74;59.17
61324;BME280;47203;48.428;11.974;2023-05-11T08:29:51;96528.63;;;14.73;59.03
61324;BME280;47203;48.428;11.974;2023-05-11T08:31:56;96521.50;;;14.74;59.10
61324;BME280;47203;48.428;11.974;2023-05-11T08:34:02;96520.91;;;14.77;59.23
61324;BME280;47203;48.428;11.974;2023-05-11T08:36:19;96521.38;;;14.79;58.91
61324;BME280;47203;48.428;11.974;2023-05-11T08:38:24;96523.44;;;14.82;59.12
61324;BME280;47203;48.428;11.974;2023-05-11T08:40:29;96527.06;;;14.86;58.93
61324;BME280;47203;48.428;11.974;2023-05-11T08:42:37;96521.75;;;14.86;59.00
61324;BME280;47203;48.428;11.974;2023-05-11T08:44:47;96528.16;;;14.85;59.23
61324;BME280;47203;48.428;11.974;2023-05-11T08:46:53;96524.22;;;14.82;58.96
61324;BME280;47203;48.428;11.974;2023-05-11T08:49:18;96519.72;;;14.83;59.27
61324;BME280;47203;48.428;11.974;2023-05-11T08:51:24;96521.56;;;14.82;59.38
61324;BME280;47203;48.428;11.974;2023-05-11T08:53:29;96516.28;;;14.82;59.07
61324;BME280;47203;48.428;11.974;2023-05-11T08:55:34;96520.28;;;14.80;59.02
61324;BME280;47203;48.428;11.974;2023-05-11T08:57:43;96508.72;;;14.76;59.15
61324;BME280;47203;48.428;11.974;2023-05-11T08:59:52;96512.47;;;14.75;59.31
61324;BME280;47203;48.428;11.974;2023-05-11T09:01:58;96515.13;;;14.75;59.23
61324;BME280;47203;48.428;11.974;2023-05-11T09:04:03;96521.50;;;14.74;59.40
61324;BME280;47203;48.428;11.974;2023-05-11T09:06:09;96519.13;;;14.72;59.28
61324;BME280;47203;48.428;11.974;2023-05-11T09:08:17;96527.09;;;14.72;59.37
61324;BME280;47203;48.428;11.974;2023-05-11T09:10:22;96518.34;;;14.72;59.22
61324;BME280;47203;48.428;11.974;2023-05-11T09:12:27;96515.69;;;14.72;59.07
61324;BME280;47203;48.428;11.974;2023-05-11T09:14:32;96525.97;;;14.73;59.13
61324;BME280;47203;48.428;11.974;2023-05-11T09:16:40;96524.13;;;14.74;59.29
61324;BME280;47203;48.428;11.974;2023-05-11T09:18:46;96528.63;;;14.73;59.12
61324;BME280;47203;48.428;11.974;2023-05-11T09:20:51;96524.72;;;14.71;59.43
61324;BME280;47203;48.428;11.974;2023-05-11T09:22:56;96521.28;;;14.70;59.57
61324;BME280;47203;48.428;11.974;2023-05-11T09:25:02;96525.50;;;14.71;59.32
61324;BME280;47203;48.428;11.974;2023-05-11T09:27:08;96530.81;;;14.71;59.59
61324;BME280;47203;48.428;11.974;2023-05-11T09:29:13;96529.44;;;14.74;59.49
61324;BME280;47203;48.428;11.974;2023-05-11T09:31:33;96522.25;;;14.74;59.90
61324;BME280;47203;48.428;11.974;2023-05-11T09:33:41;96517.75;;;14.75;59.47
61324;BME280;47203;48.428;11.974;2023-05-11T09:35:46;96516.38;;;14.77;59.36
61324;BME280;47203;48.428;11.974;2023-05-11T09:38:03;96524.63;;;14.76;59.59
61324;BME280;47203;48.428;11.974;2023-05-11T09:40:10;96519.81;;;14.78;59.45
61324;BME280;47203;48.428;11.974;2023-05-11T09:42:34;96527.19;;;14.81;59.30
61324;BME280;47203;48.428;11.974;2023-05-11T09:44:39;96522.84;;;14.85;59.40
61324;BME280;47203;48.428;11.974;2023-05-11T09:46:45;96520.69;;;14.87;59.19
61324;BME280;47203;48.428;11.974;2023-05-11T09:48:57;96526.47;;;14.89;59.30
61324;BME280;47203;48.428;11.974;2023-05-11T09:51:04;96528.81;;;14.91;59.26
61324;BME280;47203;48.428;11.974;2023-05-11T09:53:10;96530.09;;;14.93;59.15
61324;BME280;47203;48.428;11.974;2023-05-11T09:55:15;96523.72;;;14.94;59.29
61324;BME280;47203;48.428;11.974;2023-05-11T09:57:25;96522.34;;;14.97;59.19
61324;BME280;47203;48.428;11.974;2023-05-11T09:59:38;96517.81;;;14.97;58.96
61324;BME280;47203;48.428;11.974;2023-05-11T10:01:43;96521.53;;;14.96;59.09
61324;BME280;47203;48.428;11.974;2023-05-11T10:03:50;96518.41;;;14.94;59.15
61324;BME280;47203;48.428;11.974;2023-05-11T10:06:12;96518.72;;;14.93;59.41
61324;BME280;47203;48.428;11.974;2023-05-11T10:08:26;96518.72;;;14.93;59.18
61324;BME280;47203;48.428;11.974;2023-05-11T10:10:33;96516.84;;;14.93;59.19
61324;BME280;47203;48.428;11.974;2023-05-11T10:12:38;96523.72;;;14.94;59.17
61324;BME280;47203;48.428;11.974;2023-05-11T10:14:43;96521.84;;;14.95;59.17
61324;BME280;47203;48.428;11.974;2023-05-11T10:16:48;96518.72;;;14.93;59.36
61324;BME280;47203;48.428;11.974;2023-05-11T10:18:55;96527.25;;;14.90;59.00
61324;BME280;47203;48.428;11.974;2023-05-11T10:21:01;96518.81;;;14.88;59.14
61324;BME280;47203;48.428;11.974;2023-05-11T10:23:10;96520.50;;;14.83;59.31
61324;BME280;47203;48.428;11.974;2023-05-11T10:25:16;96520.00;;;14.81;59.47
61324;BME280;47203;48.428;11.974;2023-05-11T10:27:22;96519.22;;;14.81;59.28
61324;BME280;47203;48.428;11.974;2023-05-11T10:29:27;96527.94;;;14.81;59.54
61324;BME280;47203;48.428;11.974;2023-05-11T10:31:33;96521.88;;;14.81;59.18
61324;BME280;47203;48.428;11.974;2023-05-11T10:33:40;96520.28;;;14.80;59.38
61324;BME280;47203;48.428;11.974;2023-05-11T10:35:45;96514.81;;;14.76;59.39
61324;BME280;47203;48.428;11.974;2023-05-11T10:37:51;96519.63;;;14.74;59.28
61324;BME280;47203;48.428;11.974;2023-05-11T10:39:59;96523.63;;;14.72;59.43
61324;BME280;47203;48.428;11.974;2023-05-11T10:42:24;96516.78;;;14.71;59.79
61324;BME280;47203;48.428;11.974;2023-05-11T10:44:40;96513.34;;;14.70;59.80
61324;BME280;47203;48.428;11.974;2023-05-11T10:47:07;96523.94;;;14.70;59.72
61324;BME280;47203;48.428;11.974;2023-05-11T10:49:25;96520.81;;;14.68;59.32
61324;BME280;47203;48.428;11.974;2023-05-11T10:51:49;96518.94;;;14.69;59.42
61324;BME280;47203;48.428;11.974;2023-05-11T10:54:05;96514.22;;;14.65;59.34
61324;BME280;47203;48.428;11.974;2023-05-11T10:56:26;96503.31;;;14.67;59.54
61324;BME280;47203;48.428;11.974;2023-05-11T10:58:45;96509.91;;;14.70;59.68
61324;BME280;47203;48.428;11.974;2023-05-11T11:03:27;96500.00;;;14.75;59.45
61324;BME280;47203;48.428;11.974;2023-05-11T11:05:32;96505.47;;;14.79;59.67
61324;BME280;47203;48.428;11.974;2023-05-11T11:07:57;96508.63;;;14.81;59.71
61324;BME280;47203;48.428;11.974;2023-05-11T11:10:07;96505.69;;;14.82;59.47
61324;BME280;47203;48.428;11.974;2023-05-11T11:12:16;96499.00;;;14.85;59.67